GMFF/FEZ METAR and TAF weather

Enter ICAO airport designator
Station Type Date Time Source
GMFF METAR 2019/06/18 13:30 UTC NOAA

GMFF 181330Z 30009KT 270V340 9999 FEW030 29/12 Q1018 NOSIG


Station Type Date Time Source
GMFF Decoded METAR 2019/06/18 13:30 UTC NOAA

Fes-Sais, Morocco (GMFF) 33-56N 004-59W 579M
Jun 18, 2019 - 09:30 AM EDT / 2019.06.18 1330 UTC
Wind: from the WNW (300 degrees) at 10 MPH (9 KT) (direction variable):0
Visibility: greater than 7 mile(s):0
Sky conditions: mostly clear
Temperature: 84 F (29 C)
Dew Point: 53 F (12 C)
Relative Humidity: 34%
Pressure (altimeter): 30.06 in. Hg (1018 hPa)
ob: GMFF 181330Z 30009KT 270V340 9999 FEW030 29/12 Q1018 NOSIG
cycle: 13

Station Type Date Time Source
GMFF TAF 2019/06/18 12:15 UTC NOAA

TAF TAF GMFF 181100Z 1812/1918 34012KT CAVOK
BECMG 1820/1822 24006KT
BECMG 1908/1910 32012KT

Example: see airport list